Time;durP1;ratioP1;P1;durP2;ratioP2;P2;SDS_P1;SDS_P2;PMS_P1;PMS_P2;Temp;Humidity;BMP_temperature;BMP_pressure;BME280_temperature;BME280_humidity;BME280_pressure;Samples;Min_cycle;Max_cycle;Signal;HPM_P1;HPM_P2
2022/05/26 00:00:28;;;;;;;23.70;8.18;;;;;;;;;;5092832;28;20044;-74
2022/05/26 00:03:33;;;;;;;23.60;7.93;;;;;;;;;;5092464;28;20039;-74
2022/05/26 00:06:37;;;;;;;27.95;8.90;;;;;;;;;;5092875;28;20043;-74
2022/05/26 00:09:42;;;;;;;34.40;9.30;;;;;;;;;;5093237;28;20058;-74
2022/05/26 00:12:47;;;;;;;36.15;9.98;;;;;;;;;;5092698;28;20043;-74
2022/05/26 00:15:52;;;;;;;31.23;10.10;;;;;;;;;;5093093;28;20036;-74
2022/05/26 00:18:57;;;;;;;33.05;8.98;;;;;;;;;;5092993;28;20058;-75
2022/05/26 00:22:01;;;;;;;34.03;9.40;;;;;;;;;;5092869;28;20051;-75
2022/05/26 00:25:06;;;;;;;26.60;9.52;;;;;;;;;;5092980;28;20047;-74
2022/05/26 00:28:10;;;;;;;18.73;9.27;;;;;;;;;;5080083;28;20050;-74
2022/05/26 00:31:14;;;;;;;28.38;9.82;;;;;;;;;;5092774;28;20040;-75
2022/05/26 00:34:19;;;;;;;35.35;9.55;;;;;;;;;;5092402;28;20392;-74
2022/05/26 00:37:23;;;;;;;26.67;8.73;;;;;;;;;;5092478;28;20490;-74
2022/05/26 00:40:28;;;;;;;23.30;9.43;;;;;;;;;;5092415;28;20048;-74
2022/05/26 00:43:32;;;;;;;29.45;9.70;;;;;;;;;;5092021;28;20048;-74
2022/05/26 00:46:46;;;;;;;29.15;9.63;;;;;;;;;;5092341;28;20036;-74
2022/05/26 00:50:02;;;;;;;22.50;9.07;;;;;;;;;;5092179;28;20071;-74
2022/05/26 00:53:18;;;;;;;31.65;10.65;;;;;;;;;;5092293;28;20040;-74
2022/05/26 00:56:32;;;;;;;29.35;10.95;;;;;;;;;;5092278;28;20507;-74
2022/05/26 00:59:55;;;;;;;29.70;10.02;;;;;;;;;;5091924;28;20050;-75
2022/05/26 01:03:08;;;;;;;25.48;9.48;;;;;;;;;;5091848;28;20051;-74
2022/05/26 01:06:12;;;;;;;31.23;9.93;;;;;;;;;;5091858;28;20040;-74
2022/05/26 01:09:16;;;;;;;63.25;10.80;;;;;;;;;;5091962;28;20032;-74
2022/05/26 01:12:20;;;;;;;32.05;10.50;;;;;;;;;;5090828;28;20493;-74
2022/05/26 01:15:27;;;;;;;25.40;9.25;;;;;;;;;;5091717;28;20423;-75
2022/05/26 01:18:39;;;;;;;24.30;10.20;;;;;;;;;;5091726;28;20368;-75
2022/05/26 01:21:47;;;;;;;21.42;9.20;;;;;;;;;;5091675;28;20063;-75
2022/05/26 01:25:10;;;;;;;24.50;10.43;;;;;;;;;;5090849;28;20044;-74
2022/05/26 01:28:40;;;;;;;24.50;9.68;;;;;;;;;;5091717;28;20628;-74
2022/05/26 01:31:47;;;;;;;23.48;8.90;;;;;;;;;;5091893;28;20053;-75
2022/05/26 01:35:15;;;;;;;24.02;8.40;;;;;;;;;;5091513;28;20060;-75
2022/05/26 01:38:28;;;;;;;20.13;8.57;;;;;;;;;;5091566;28;20399;-74
2022/05/26 01:41:48;;;;;;;20.13;9.25;;;;;;;;;;5091485;28;20051;-74
2022/05/26 01:45:11;;;;;;;25.58;9.23;;;;;;;;;;5091301;28;20051;-75
2022/05/26 01:48:21;;;;;;;24.88;9.02;;;;;;;;;;5091308;28;20044;-75
2022/05/26 01:51:33;;;;;;;20.88;9.15;;;;;;;;;;5078986;28;20032;-74
2022/05/26 01:54:44;;;;;;;19.92;8.80;;;;;;;;;;5091340;28;20043;-75
2022/05/26 01:58:03;;;;;;;18.67;9.07;;;;;;;;;;5091561;28;20041;-75
2022/05/26 02:01:10;;;;;;;25.25;9.93;;;;;;;;;;5091135;28;20044;-75
2022/05/26 02:04:18;;;;;;;23.90;8.95;;;;;;;;;;5090615;28;20036;-75
2022/05/26 02:07:22;;;;;;;21.73;10.88;;;;;;;;;;5090910;28;20040;-75
2022/05/26 02:10:33;;;;;;;25.55;9.77;;;;;;;;;;5091085;28;20047;-75
2022/05/26 02:13:44;;;;;;;20.55;8.95;;;;;;;;;;5090226;28;20036;-75
2022/05/26 02:16:50;;;;;;;27.48;9.52;;;;;;;;;;5090194;28;20403;-75
2022/05/26 02:19:56;;;;;;;21.67;8.73;;;;;;;;;;5091213;28;20040;-75
2022/05/26 02:23:18;;;;;;;20.08;8.80;;;;;;;;;;5091991;28;20048;-75
2022/05/26 02:26:23;;;;;;;24.70;9.50;;;;;;;;;;5095034;28;20040;-75
2022/05/26 02:32:52;;;;;;;18.80;9.00;;;;;;;;;;5094883;28;20036;-74
2022/05/26 02:35:56;;;;;;;34.80;19.55;;;;;;;;;;5094731;28;20040;-74
2022/05/26 02:39:00;;;;;;;30.33;16.13;;;;;;;;;;5094525;28;20431;-74
2022/05/26 02:42:05;;;;;;;25.85;13.65;;;;;;;;;;5094705;28;20055;-74
2022/05/26 02:45:11;;;;;;;34.03;15.07;;;;;;;;;;5094653;28;20051;-74
2022/05/26 02:48:34;;;;;;;29.20;13.57;;;;;;;;;;5093946;28;20043;-75
2022/05/26 02:51:45;;;;;;;36.03;20.35;;;;;;;;;;5094645;28;20043;-75
2022/05/26 02:54:58;;;;;;;29.48;20.70;;;;;;;;;;5082107;28;20051;-75
2022/05/26 02:58:11;;;;;;;39.00;23.98;;;;;;;;;;5082016;28;20511;-75
2022/05/26 03:01:22;;;;;;;39.75;23.20;;;;;;;;;;5094127;28;20305;-75
2022/05/26 03:04:29;;;;;;;39.38;21.42;;;;;;;;;;5094500;28;20490;-75
2022/05/26 03:07:34;;;;;;;33.50;21.85;;;;;;;;;;5094172;28;20050;-75
2022/05/26 03:10:39;;;;;;;29.33;18.98;;;;;;;;;;5094144;28;20506;-75
2022/05/26 03:13:43;;;;;;;29.90;14.90;;;;;;;;;;5094101;28;20506;-75
2022/05/26 03:16:48;;;;;;;31.50;15.13;;;;;;;;;;5094108;28;20391;-75
2022/05/26 03:19:52;;;;;;;30.67;13.23;;;;;;;;;;5093420;28;20510;-75
2022/05/26 03:22:56;;;;;;;30.67;11.88;;;;;;;;;;5093763;28;20395;-74
2022/05/26 03:26:01;;;;;;;29.70;12.15;;;;;;;;;;5093947;28;20067;-74
2022/05/26 03:29:06;;;;;;;32.85;11.95;;;;;;;;;;5093779;28;20055;-75
2022/05/26 03:32:10;;;;;;;21.25;10.55;;;;;;;;;;5093788;28;20043;-74
2022/05/26 03:42:01;;;;;;;20.77;9.55;;;;;;;;;;5093381;28;20054;-75
2022/05/26 03:45:06;;;;;;;24.27;9.50;;;;;;;;;;5093676;28;20059;-76
2022/05/26 03:48:10;;;;;;;26.92;10.40;;;;;;;;;;5093257;28;20036;-75
2022/05/26 03:51:15;;;;;;;27.17;9.75;;;;;;;;;;5093363;28;20047;-75
2022/05/26 03:54:19;;;;;;;25.25;9.15;;;;;;;;;;5093313;28;20507;-75
2022/05/26 03:57:24;;;;;;;23.48;9.48;;;;;;;;;;5093027;28;20040;-73
2022/05/26 04:00:28;;;;;;;29.15;10.00;;;;;;;;;;5093250;28;20391;-75
2022/05/26 04:03:33;;;;;;;22.70;9.40;;;;;;;;;;5093011;28;20051;-75
2022/05/26 04:06:37;;;;;;;27.95;10.30;;;;;;;;;;5093089;28;20490;-74
2022/05/26 04:09:42;;;;;;;25.02;9.30;;;;;;;;;;5093007;28;20043;-75
2022/05/26 04:12:46;;;;;;;33.22;10.90;;;;;;;;;;5093160;28;20044;-75
2022/05/26 04:15:50;;;;;;;45.78;9.63;;;;;;;;;;5092931;28;20055;-75
2022/05/26 04:18:55;;;;;;;30.90;9.38;;;;;;;;;;5092925;28;20049;-74
2022/05/26 04:22:18;;;;;;;36.08;10.20;;;;;;;;;;5092792;28;20044;-74
2022/05/26 04:25:25;;;;;;;23.15;8.35;;;;;;;;;;5092856;28;20039;-74
2022/05/26 04:28:30;;;;;;;23.17;9.18;;;;;;;;;;5092363;28;20400;-74
2022/05/26 04:31:34;;;;;;;24.40;10.18;;;;;;;;;;5091636;28;20039;-75
2022/05/26 04:34:39;;;;;;;26.35;11.02;;;;;;;;;;5092023;28;20071;-75
2022/05/26 04:37:43;;;;;;;40.13;21.65;;;;;;;;;;5092183;28;20495;-75
2022/05/26 04:40:56;;;;;;;31.65;15.77;;;;;;;;;;5092440;28;20039;-75
2022/05/26 04:44:01;;;;;;;34.00;14.30;;;;;;;;;;5092261;28;20506;-75
2022/05/26 04:47:06;;;;;;;33.50;12.95;;;;;;;;;;5091846;28;20039;-75
2022/05/26 04:50:11;;;;;;;31.27;12.13;;;;;;;;;;5092349;28;20039;-74
2022/05/26 04:53:15;;;;;;;29.38;11.05;;;;;;;;;;5092029;28;20384;-75
2022/05/26 04:56:19;;;;;;;29.95;11.40;;;;;;;;;;5092067;28;20505;-75
2022/05/26 04:59:24;;;;;;;39.78;11.63;;;;;;;;;;5091930;28;20043;-74
2022/05/26 05:02:30;;;;;;;31.00;14.95;;;;;;;;;;5091974;28;20043;-74
2022/05/26 05:05:35;;;;;;;47.83;14.35;;;;;;;;;;5092275;28;20043;-75
2022/05/26 05:08:39;;;;;;;41.22;12.77;;;;;;;;;;5091945;28;20047;-74
2022/05/26 05:11:43;;;;;;;29.52;12.38;;;;;;;;;;5092174;28;20062;-74
2022/05/26 05:14:49;;;;;;;30.23;12.00;;;;;;;;;;5091877;28;20043;-74
2022/05/26 05:17:54;;;;;;;36.10;12.23;;;;;;;;;;5092054;28;20039;-75
2022/05/26 05:21:00;;;;;;;35.30;12.43;;;;;;;;;;5090947;28;20395;-75
2022/05/26 05:24:16;;;;;;;45.65;13.77;;;;;;;;;;5091671;28;20043;-75
2022/05/26 05:27:23;;;;;;;33.47;11.70;;;;;;;;;;5079286;28;20047;-75
2022/05/26 05:30:51;;;;;;;64.45;14.35;;;;;;;;;;5091640;28;20039;-74
2022/05/26 05:33:58;;;;;;;31.75;11.77;;;;;;;;;;5091624;28;20504;-74
2022/05/26 05:37:02;;;;;;;37.42;12.68;;;;;;;;;;5091016;28;20047;-75
2022/05/26 05:40:07;;;;;;;49.90;13.23;;;;;;;;;;5091789;28;20047;-74
2022/05/26 05:43:11;;;;;;;38.13;12.32;;;;;;;;;;5090529;28;20047;-74
2022/05/26 05:46:19;;;;;;;66.00;15.45;;;;;;;;;;5091511;28;20201;-75
2022/05/26 05:49:25;;;;;;;54.50;13.80;;;;;;;;;;5091369;28;20415;-73
2022/05/26 05:52:30;;;;;;;39.83;12.95;;;;;;;;;;5091776;28;20051;-74
2022/05/26 05:55:34;;;;;;;63.67;14.18;;;;;;;;;;5091101;28;20050;-75
2022/05/26 05:58:38;;;;;;;50.78;14.38;;;;;;;;;;5089968;28;20059;-75
2022/05/26 06:01:42;;;;;;;36.45;11.30;;;;;;;;;;5091272;28;20046;-74
2022/05/26 06:04:47;;;;;;;45.38;12.57;;;;;;;;;;5091323;28;20043;-74
2022/05/26 06:07:52;;;;;;;39.10;11.52;;;;;;;;;;5091142;28;20043;-74
2022/05/26 06:10:58;;;;;;;25.48;10.70;;;;;;;;;;5091133;28;20106;-73
2022/05/26 06:14:03;;;;;;;31.90;11.07;;;;;;;;;;5090817;28;20055;-74
2022/05/26 06:17:07;;;;;;;47.58;11.68;;;;;;;;;;5090806;28;20043;-73
2022/05/26 06:20:13;;;;;;;33.30;10.63;;;;;;;;;;5090544;28;20316;-75
2022/05/26 06:23:18;;;;;;;32.13;9.40;;;;;;;;;;5089863;28;20499;-74
2022/05/26 06:26:22;;;;;;;30.90;9.40;;;;;;;;;;5090632;28;20273;-73
2022/05/26 06:39:42;;;;;;;27.63;8.20;;;;;;;;;;5090088;28;20036;-75
2022/05/26 06:42:47;;;;;;;49.75;8.27;;;;;;;;;;5090284;28;20052;-74
2022/05/26 06:45:51;;;;;;;33.40;8.68;;;;;;;;;;5090598;28;20028;-74
2022/05/26 06:48:55;;;;;;;29.15;7.80;;;;;;;;;;5091037;28;20047;-74
2022/05/26 06:52:00;;;;;;;36.72;7.82;;;;;;;;;;5090585;28;20044;-74
2022/05/26 06:55:05;;;;;;;34.60;7.80;;;;;;;;;;5090625;28;20040;-74
2022/05/26 06:58:10;;;;;;;29.13;7.78;;;;;;;;;;5090467;28;20048;-74
2022/05/26 07:01:14;;;;;;;37.92;8.10;;;;;;;;;;5089174;28;20059;-74
2022/05/26 07:04:19;;;;;;;64.45;9.93;;;;;;;;;;5090502;28;20040;-75
2022/05/26 07:07:25;;;;;;;55.33;8.77;;;;;;;;;;5089727;28;20039;-74
2022/05/26 07:10:30;;;;;;;58.05;9.90;;;;;;;;;;5091910;28;20044;-70
2022/05/26 07:13:34;;;;;;;34.55;8.57;;;;;;;;;;5094147;28;20372;-72
2022/05/26 07:16:39;;;;;;;40.05;8.02;;;;;;;;;;5093874;28;20064;-73
2022/05/26 07:19:43;;;;;;;39.70;9.90;;;;;;;;;;5093704;28;20051;-71
2022/05/26 07:22:48;;;;;;;49.63;9.27;;;;;;;;;;5093860;28;20050;-73
2022/05/26 07:25:52;;;;;;;34.72;8.65;;;;;;;;;;5093619;28;20049;-72
2022/05/26 07:28:56;;;;;;;33.72;8.73;;;;;;;;;;5093733;28;20044;-73
2022/05/26 07:32:01;;;;;;;37.10;9.45;;;;;;;;;;5092686;28;20036;-73
2022/05/26 07:35:06;;;;;;;32.53;9.07;;;;;;;;;;5093316;28;20044;-72
2022/05/26 07:41:33;;;;;;;26.58;9.07;;;;;;;;;;5093328;28;20051;-72
2022/05/26 07:44:39;;;;;;;33.67;7.93;;;;;;;;;;5093176;28;20053;-69
2022/05/26 07:47:43;;;;;;;29.73;8.15;;;;;;;;;;5093325;28;20497;-73
2022/05/26 07:50:48;;;;;;;33.95;8.27;;;;;;;;;;5092211;28;20036;-68
2022/05/26 07:53:52;;;;;;;26.35;8.77;;;;;;;;;;5093088;28;20047;-69
2022/05/26 07:56:57;;;;;;;35.85;9.05;;;;;;;;;;5093035;28;20043;-69
2022/05/26 08:00:02;;;;;;;29.30;7.82;;;;;;;;;;5093427;28;20044;-68
2022/05/26 08:03:15;;;;;;;18.70;6.95;;;;;;;;;;5092772;28;20496;-67
2022/05/26 08:06:20;;;;;;;31.50;8.80;;;;;;;;;;5092776;28;20384;-69
2022/05/26 08:09:24;;;;;;;28.77;8.20;;;;;;;;;;5091845;28;20040;-68
2022/05/26 08:12:28;;;;;;;37.47;8.57;;;;;;;;;;5092921;28;20036;-68
2022/05/26 08:15:33;;;;;;;208.93;19.23;;;;;;;;;;5093126;28;20040;-70
2022/05/26 08:18:38;;;;;;;77.93;11.18;;;;;;;;;;5092936;28;20043;-69
2022/05/26 08:21:42;;;;;;;209.95;24.05;;;;;;;;;;5092223;28;20051;-70
2022/05/26 08:24:51;;;;;;;74.00;12.95;;;;;;;;;;5092570;28;20042;-69
2022/05/26 08:27:55;;;;;;;77.20;12.80;;;;;;;;;;5092543;28;20055;-69
2022/05/26 08:31:00;;;;;;;38.45;8.20;;;;;;;;;;5091732;28;20075;-69
2022/05/26 08:34:04;;;;;;;27.15;6.88;;;;;;;;;;5092257;28;20044;-68
2022/05/26 08:37:15;;;;;;;50.42;9.25;;;;;;;;;;5091407;28;20050;-68
2022/05/26 08:40:38;;;;;;;35.78;8.13;;;;;;;;;;5092429;28;20371;-70
2022/05/26 08:43:45;;;;;;;23.80;6.85;;;;;;;;;;5092176;28;20044;-69
2022/05/26 08:46:55;;;;;;;86.35;13.90;;;;;;;;;;5091365;28;20036;-69
2022/05/26 08:50:10;;;;;;;21.20;5.70;;;;;;;;;;5092362;28;20055;-69
2022/05/26 08:53:19;;;;;;;32.60;6.63;;;;;;;;;;5092192;28;20047;-71
2022/05/26 08:56:26;;;;;;;21.58;6.25;;;;;;;;;;5092027;28;20535;-69
2022/05/26 08:59:33;;;;;;;27.33;6.82;;;;;;;;;;5092191;28;20036;-71
2022/05/26 09:02:38;;;;;;;18.40;6.10;;;;;;;;;;5091773;28;20047;-69
2022/05/26 09:05:43;;;;;;;20.75;7.13;;;;;;;;;;5091816;28;20043;-71
2022/05/26 09:15:38;;;;;;;27.80;6.65;;;;;;;;;;5091313;28;20484;-70
2022/05/26 09:18:44;;;;;;;36.33;7.15;;;;;;;;;;5091732;28;20491;-71
2022/05/26 09:21:49;;;;;;;54.75;8.63;;;;;;;;;;5091441;28;20047;-70
2022/05/26 09:24:53;;;;;;;26.13;7.03;;;;;;;;;;5091561;28;20055;-70
2022/05/26 09:27:58;;;;;;;48.90;8.65;;;;;;;;;;5091406;28;20036;-69
2022/05/26 09:31:17;;;;;;;32.47;6.60;;;;;;;;;;5091431;28;20044;-69
2022/05/26 09:34:32;;;;;;;34.97;7.82;;;;;;;;;;5078333;28;20046;-71
2022/05/26 09:37:47;;;;;;;20.95;7.05;;;;;;;;;;5091402;28;20487;-69
2022/05/26 09:40:52;;;;;;;19.48;6.10;;;;;;;;;;5090695;28;20047;-70
2022/05/26 09:43:59;;;;;;;47.15;9.23;;;;;;;;;;5091003;28;20051;-70
2022/05/26 09:47:19;;;;;;;19.73;6.82;;;;;;;;;;5091137;28;20051;-69
2022/05/26 09:50:39;;;;;;;21.63;7.10;;;;;;;;;;5090461;28;20044;-70
2022/05/26 09:53:45;;;;;;;14.57;6.05;;;;;;;;;;5090964;28;20036;-69
2022/05/26 09:56:50;;;;;;;18.40;7.30;;;;;;;;;;5091259;28;20042;-69
2022/05/26 09:59:54;;;;;;;20.33;6.65;;;;;;;;;;5091266;28;20036;-69
2022/05/26 10:03:00;;;;;;;25.42;7.13;;;;;;;;;;5090211;28;20059;-67
2022/05/26 10:06:23;;;;;;;29.25;7.57;;;;;;;;;;5090914;28;20043;-69
2022/05/26 10:09:32;;;;;;;31.73;6.78;;;;;;;;;;5091109;28;20043;-69
2022/05/26 10:12:43;;;;;;;29.75;8.40;;;;;;;;;;5090909;28;20391;-70
2022/05/26 10:16:07;;;;;;;26.23;6.95;;;;;;;;;;5090993;28;20032;-70
2022/05/26 10:19:30;;;;;;;18.15;6.05;;;;;;;;;;5091053;28;20404;-70
2022/05/26 10:22:41;;;;;;;12.02;5.78;;;;;;;;;;5090926;28;20526;-70
2022/05/26 10:26:04;;;;;;;29.35;7.22;;;;;;;;;;5090334;28;20040;-68
2022/05/26 10:29:23;;;;;;;26.83;7.85;;;;;;;;;;5089664;28;20043;-69
2022/05/26 10:32:36;;;;;;;18.13;6.95;;;;;;;;;;5090888;28;20029;-69
2022/05/26 10:35:59;;;;;;;20.95;7.57;;;;;;;;;;5090539;28;20423;-68
2022/05/26 10:39:10;;;;;;;24.60;7.45;;;;;;;;;;5090882;28;20301;-68
2022/05/26 10:42:23;;;;;;;17.45;6.10;;;;;;;;;;5090888;28;20076;-68
2022/05/26 10:45:48;;;;;;;12.40;5.47;;;;;;;;;;5093708;28;20382;-68
2022/05/26 10:49:04;;;;;;;21.98;6.05;;;;;;;;;;5094656;28;20040;-69
2022/05/26 10:52:37;;;;;;;14.18;4.82;;;;;;;;;;5093357;28;20040;-68
2022/05/26 10:56:04;;;;;;;16.95;4.57;;;;;;;;;;5094589;28;20488;-68
2022/05/26 10:59:18;;;;;;;23.83;5.32;;;;;;;;;;5094437;28;20306;-69
2022/05/26 11:02:25;;;;;;;18.15;5.13;;;;;;;;;;5093513;28;20055;-67
2022/05/26 11:05:32;;;;;;;13.15;6.05;;;;;;;;;;5093936;28;20506;-69
2022/05/26 11:08:37;;;;;;;18.98;5.68;;;;;;;;;;5093923;28;20047;-68
2022/05/26 11:11:46;;;;;;;19.92;5.78;;;;;;;;;;5094064;28;20050;-68
2022/05/26 11:18:20;;;;;;;20.20;5.95;;;;;;;;;;5093386;28;20036;-68
2022/05/26 11:21:25;;;;;;;15.35;6.30;;;;;;;;;;5093843;28;20036;-68
2022/05/26 11:24:30;;;;;;;20.35;7.15;;;;;;;;;;5093855;28;20048;-68
2022/05/26 11:27:34;;;;;;;14.07;5.40;;;;;;;;;;5094233;28;20035;-67
2022/05/26 11:37:36;;;;;;;14.55;5.80;;;;;;;;;;5093312;28;20244;-69
2022/05/26 11:40:50;;;;;;;13.32;5.75;;;;;;;;;;5093432;28;20063;-69
2022/05/26 11:44:01;;;;;;;16.48;5.60;;;;;;;;;;5093070;28;20063;-68
2022/05/26 11:47:24;;;;;;;17.85;5.18;;;;;;;;;;5092363;28;20610;-68
2022/05/26 11:50:29;;;;;;;15.13;5.45;;;;;;;;;;5093427;28;20047;-69
2022/05/26 11:53:38;;;;;;;17.95;5.80;;;;;;;;;;5092467;28;20045;-68
2022/05/26 11:56:44;;;;;;;20.45;6.30;;;;;;;;;;5092348;28;20044;-68
2022/05/26 11:59:48;;;;;;;12.60;5.20;;;;;;;;;;5093220;28;20471;-67
2022/05/26 12:03:12;;;;;;;22.80;6.72;;;;;;;;;;5092937;28;20040;-68
2022/05/26 12:06:30;;;;;;;12.95;5.70;;;;;;;;;;5093004;28;20040;-68
2022/05/26 12:09:44;;;;;;;12.93;5.78;;;;;;;;;;5093375;28;20052;-67
2022/05/26 12:12:49;;;;;;;16.90;6.13;;;;;;;;;;5092969;28;20036;-67
2022/05/26 12:16:12;;;;;;;10.63;5.53;;;;;;;;;;5092790;28;20036;-68
2022/05/26 12:19:35;;;;;;;14.07;4.68;;;;;;;;;;5092640;28;20187;-68
2022/05/26 12:22:52;;;;;;;26.08;5.00;;;;;;;;;;5092624;28;20048;-68
2022/05/26 12:26:19;;;;;;;17.90;5.13;;;;;;;;;;5092663;28;20036;-69
2022/05/26 12:29:42;;;;;;;20.60;5.50;;;;;;;;;;5091842;28;20040;-68
2022/05/26 12:32:52;;;;;;;13.60;4.95;;;;;;;;;;5092607;28;20036;-69
2022/05/26 12:36:16;;;;;;;10.10;4.70;;;;;;;;;;5093154;28;20484;-67
2022/05/26 12:39:20;;;;;;;14.98;5.22;;;;;;;;;;5092462;28;20047;-68
2022/05/26 12:42:32;;;;;;;20.90;6.55;;;;;;;;;;5092205;28;20032;-68
2022/05/26 12:45:40;;;;;;;16.75;5.50;;;;;;;;;;5092193;28;20431;-69
2022/05/26 12:48:48;;;;;;;17.05;6.05;;;;;;;;;;5092307;28;20044;-68
2022/05/26 12:52:05;;;;;;;15.25;5.18;;;;;;;;;;5092495;28;20499;-69
2022/05/26 12:55:21;;;;;;;12.15;4.72;;;;;;;;;;5092208;28;20048;-67
2022/05/26 12:58:36;;;;;;;13.73;5.05;;;;;;;;;;5092262;28;20049;-67
2022/05/26 13:01:40;;;;;;;10.48;4.60;;;;;;;;;;5091088;28;20040;-68
2022/05/26 13:04:44;;;;;;;10.73;4.88;;;;;;;;;;5091992;28;20044;-67
2022/05/26 13:07:54;;;;;;;16.65;4.88;;;;;;;;;;5092050;28;20114;-68
2022/05/26 13:10:59;;;;;;;16.45;5.35;;;;;;;;;;5091950;28;20043;-68
2022/05/26 13:14:09;;;;;;;13.88;4.88;;;;;;;;;;5091823;28;20039;-67
2022/05/26 13:17:13;;;;;;;11.60;4.95;;;;;;;;;;5092017;28;20043;-68
2022/05/26 13:20:30;;;;;;;16.73;4.63;;;;;;;;;;5092019;28;20396;-67
2022/05/26 13:23:34;;;;;;;10.07;4.53;;;;;;;;;;5090793;28;20051;-70
2022/05/26 13:26:38;;;;;;;14.35;4.38;;;;;;;;;;5091713;28;20039;-68
2022/05/26 13:29:44;;;;;;;12.75;4.50;;;;;;;;;;5091437;28;20482;-67
2022/05/26 13:36:28;;;;;;;11.68;4.82;;;;;;;;;;5091566;28;20036;-68
2022/05/26 13:39:32;;;;;;;18.67;5.43;;;;;;;;;;5090794;28;20047;-68
2022/05/26 13:42:37;;;;;;;15.45;4.85;;;;;;;;;;5091253;28;20047;-68
2022/05/26 13:45:43;;;;;;;9.75;4.95;;;;;;;;;;5090601;28;20035;-68
2022/05/26 13:48:53;;;;;;;11.63;4.13;;;;;;;;;;5091480;28;20044;-69
2022/05/26 13:51:58;;;;;;;;;;;;;;;;;;5091489;28;20043;-69
2022/05/26 13:55:20;;;;;;;13.75;4.60;;;;;;;;;;5091083;28;20108;-70
2022/05/26 13:58:24;;;;;;;12.18;4.78;;;;;;;;;;5091136;28;20040;-68
2022/05/26 14:01:28;;;;;;;10.80;4.13;;;;;;;;;;5091071;28;20373;-67
2022/05/26 14:04:35;;;;;;;14.10;3.83;;;;;;;;;;5091037;28;20131;-68
2022/05/26 14:07:43;;;;;;;9.93;4.00;;;;;;;;;;5091266;28;20036;-68
2022/05/26 14:10:50;;;;;;;9.60;3.60;;;;;;;;;;5091106;28;20040;-67
2022/05/26 14:13:54;;;;;;;12.05;4.40;;;;;;;;;;5090955;28;20040;-67
2022/05/26 14:17:00;;;;;;;16.80;6.75;;;;;;;;;;5090984;28;20048;-71
2022/05/26 14:20:06;;;;;;;15.32;5.05;;;;;;;;;;5093432;28;20039;-72
2022/05/26 14:23:11;;;;;;;21.33;5.72;;;;;;;;;;5095054;28;20048;-73
2022/05/26 14:26:35;;;;;;;13.48;4.43;;;;;;;;;;5095015;28;20415;-71
2022/05/26 14:29:39;;;;;;;22.33;6.65;;;;;;;;;;5094832;28;20036;-69
2022/05/26 14:32:43;;;;;;;13.40;5.00;;;;;;;;;;5094842;28;20036;-70
2022/05/26 14:35:48;;;;;;;15.60;4.70;;;;;;;;;;5094005;28;20536;-71
2022/05/26 14:38:52;;;;;;;12.90;5.68;;;;;;;;;;5094800;28;20028;-70
2022/05/26 14:41:58;;;;;;;10.35;3.95;;;;;;;;;;5094647;28;20044;-72
2022/05/26 14:45:05;;;;;;;9.43;4.20;;;;;;;;;;5093934;28;20052;-70
2022/05/26 14:48:09;;;;;;;13.02;4.20;;;;;;;;;;5094678;28;20032;-71
2022/05/26 14:51:14;;;;;;;11.75;4.38;;;;;;;;;;5094591;28;20102;-71
2022/05/26 14:57:42;;;;;;;9.68;4.90;;;;;;;;;;5094465;28;20044;-69
2022/05/26 15:00:48;;;;;;;11.27;4.82;;;;;;;;;;5093414;28;20032;-71
2022/05/26 15:03:52;;;;;;;8.93;4.25;;;;;;;;;;5093826;28;20056;-70
2022/05/26 15:06:58;;;;;;;9.57;4.53;;;;;;;;;;5093648;28;20365;-71
2022/05/26 15:10:03;;;;;;;15.18;5.13;;;;;;;;;;5094121;28;20062;-70
2022/05/26 15:13:08;;;;;;;12.95;5.63;;;;;;;;;;5093590;28;20032;-72
2022/05/26 15:16:14;;;;;;;10.15;4.22;;;;;;;;;;5094032;28;20043;-70
2022/05/26 15:19:20;;;;;;;9.90;4.05;;;;;;;;;;5094153;28;20110;-72
2022/05/26 15:22:27;;;;;;;14.07;4.25;;;;;;;;;;5093213;28;20040;-71
2022/05/26 15:25:32;;;;;;;25.02;5.85;;;;;;;;;;5093692;28;20038;-70
2022/05/26 15:28:37;;;;;;;11.52;4.60;;;;;;;;;;5081385;28;20560;-72
2022/05/26 15:31:41;;;;;;;9.65;4.60;;;;;;;;;;5092437;28;20040;-71
2022/05/26 15:34:46;;;;;;;15.18;4.85;;;;;;;;;;5093848;28;20617;-73
2022/05/26 15:37:51;;;;;;;7.13;3.95;;;;;;;;;;5093982;28;20043;-72
2022/05/26 15:40:55;;;;;;;9.75;4.72;;;;;;;;;;5093659;28;20036;-71
2022/05/26 15:43:59;;;;;;;10.98;4.38;;;;;;;;;;5093148;28;20048;-70
2022/05/26 15:47:05;;;;;;;11.15;4.25;;;;;;;;;;5093450;28;20032;-71
2022/05/26 15:50:11;;;;;;;18.55;5.05;;;;;;;;;;5093707;28;20353;-71
2022/05/26 15:53:16;;;;;;;10.63;4.68;;;;;;;;;;5093255;28;20032;-71
2022/05/26 15:56:23;;;;;;;10.25;5.05;;;;;;;;;;5091581;28;20423;-75
2022/05/26 15:59:27;;;;;;;15.13;4.68;;;;;;;;;;5092332;28;20511;-74
2022/05/26 16:02:32;;;;;;;17.90;6.38;;;;;;;;;;5093190;28;20058;-74
2022/05/26 16:05:36;;;;;;;12.50;5.60;;;;;;;;;;5093184;28;20044;-74
2022/05/26 16:08:40;;;;;;;13.88;5.63;;;;;;;;;;5092929;28;20040;-74
2022/05/26 16:11:48;;;;;;;12.25;4.70;;;;;;;;;;5093047;28;20036;-73
2022/05/26 16:14:52;;;;;;;8.75;4.03;;;;;;;;;;5092859;28;20032;-74
2022/05/26 16:17:57;;;;;;;13.10;5.60;;;;;;;;;;5092752;28;20041;-77
2022/05/26 16:21:01;;;;;;;14.10;5.15;;;;;;;;;;5092951;28;20036;-74
2022/05/26 16:24:09;;;;;;;10.05;4.50;;;;;;;;;;5092597;28;20052;-74
2022/05/26 16:27:13;;;;;;;10.85;5.15;;;;;;;;;;5092553;28;20415;-74
2022/05/26 16:30:19;;;;;;;11.52;5.25;;;;;;;;;;5092457;28;20032;-74
2022/05/26 16:33:23;;;;;;;13.13;4.47;;;;;;;;;;5091595;28;20040;-74
2022/05/26 16:36:54;;;;;;;11.80;4.55;;;;;;;;;;5091622;28;20044;-74
2022/05/26 16:39:58;;;;;;;19.58;5.32;;;;;;;;;;5092086;28;20044;-73
2022/05/26 16:43:05;;;;;;;10.77;4.55;;;;;;;;;;5091776;28;20112;-73
2022/05/26 16:46:11;;;;;;;16.95;5.57;;;;;;;;;;5091746;28;20036;-74
2022/05/26 16:49:15;;;;;;;19.65;14.63;;;;;;;;;;5092031;28;20519;-75
2022/05/26 16:52:20;;;;;;;21.67;7.50;;;;;;;;;;5092216;28;20051;-75
2022/05/26 16:55:24;;;;;;;17.08;5.75;;;;;;;;;;5091857;28;20293;-74
2022/05/26 16:58:29;;;;;;;27.10;9.60;;;;;;;;;;5092173;28;20388;-75
2022/05/26 17:01:33;;;;;;;13.10;6.82;;;;;;;;;;5091009;28;20028;-74
2022/05/26 17:04:37;;;;;;;11.50;5.00;;;;;;;;;;5091929;28;20051;-73
2022/05/26 17:07:42;;;;;;;15.80;5.25;;;;;;;;;;5091714;28;20036;-75
2022/05/26 17:10:47;;;;;;;14.02;4.60;;;;;;;;;;5091137;28;20373;-74
2022/05/26 17:23:59;;;;;;;11.82;5.18;;;;;;;;;;5091570;28;20036;-75
2022/05/26 17:27:06;;;;;;;22.95;7.18;;;;;;;;;;5090593;28;20040;-74
2022/05/26 17:30:11;;;;;;;30.60;7.03;;;;;;;;;;5090472;28;20036;-75
2022/05/26 17:33:16;;;;;;;12.80;5.05;;;;;;;;;;5090586;28;20027;-76
2022/05/26 17:36:23;;;;;;;19.90;6.03;;;;;;;;;;5090993;28;20515;-74
2022/05/26 17:39:31;;;;;;;16.75;5.75;;;;;;;;;;5090983;28;20035;-75
2022/05/26 17:42:36;;;;;;;30.20;6.75;;;;;;;;;;5090912;28;20052;-75
2022/05/26 17:45:40;;;;;;;26.40;6.07;;;;;;;;;;5090426;28;20052;-75
2022/05/26 17:48:44;;;;;;;24.38;6.10;;;;;;;;;;5078902;28;20044;-76
2022/05/26 17:51:49;;;;;;;27.63;6.82;;;;;;;;;;5090615;28;20040;-74
2022/05/26 17:54:54;;;;;;;18.77;8.10;;;;;;;;;;5090442;28;20036;-74
2022/05/26 17:58:04;;;;;;;27.50;7.03;;;;;;;;;;5091008;28;20040;-74
2022/05/26 18:01:10;;;;;;;23.17;6.43;;;;;;;;;;5090798;28;20040;-75
2022/05/26 18:04:17;;;;;;;25.42;5.97;;;;;;;;;;5089711;28;20048;-75
2022/05/26 18:07:23;;;;;;;27.63;6.57;;;;;;;;;;5090504;28;20036;-74
2022/05/26 18:10:28;;;;;;;24.63;7.10;;;;;;;;;;5091071;28;20036;-75
2022/05/26 18:13:33;;;;;;;30.77;6.50;;;;;;;;;;5091063;28;20036;-75
2022/05/26 18:16:38;;;;;;;30.55;7.25;;;;;;;;;;5090859;28;20257;-75
2022/05/26 18:19:44;;;;;;;19.70;6.78;;;;;;;;;;5089910;28;20036;-75
2022/05/26 18:22:51;;;;;;;14.23;6.03;;;;;;;;;;5090620;28;20028;-75
2022/05/26 18:25:56;;;;;;;22.05;5.90;;;;;;;;;;5090438;28;20392;-76
2022/05/26 18:29:00;;;;;;;28.35;6.13;;;;;;;;;;5090765;28;20036;-75
2022/05/26 18:32:05;;;;;;;20.20;7.18;;;;;;;;;;5090665;28;20043;-75
2022/05/26 18:35:16;;;;;;;33.83;15.13;;;;;;;;;;5090318;28;20201;-74
2022/05/26 18:38:21;;;;;;;;;;;;;;;;;;5090363;28;20047;-74
2022/05/26 18:41:25;;;;;;;24.98;6.28;;;;;;;;;;5091224;28;19915;-76
2022/05/26 18:44:34;;;;;;;29.92;6.75;;;;;;;;;;5090340;28;20055;-75
2022/05/26 18:47:41;;;;;;;21.88;6.38;;;;;;;;;;5090043;28;20399;-75
2022/05/26 18:50:46;;;;;;;24.85;6.78;;;;;;;;;;5090829;28;20051;-75
2022/05/26 18:53:50;;;;;;;19.60;5.93;;;;;;;;;;5090770;28;20049;-76
2022/05/26 18:56:55;;;;;;;24.88;6.22;;;;;;;;;;5090479;28;20302;-75
2022/05/26 19:00:00;;;;;;;24.95;4.88;;;;;;;;;;5090526;28;20040;-76
2022/05/26 19:03:05;;;;;;;21.60;5.43;;;;;;;;;;5089451;28;20051;-75
2022/05/26 19:06:10;;;;;;;21.55;4.97;;;;;;;;;;5091987;28;20380;-75
2022/05/26 19:09:14;;;;;;;17.42;4.78;;;;;;;;;;5094282;28;20054;-74
2022/05/26 19:12:19;;;;;;;18.83;5.60;;;;;;;;;;5099977;28;20049;-75
2022/05/26 19:15:23;;;;;;;18.35;4.97;;;;;;;;;;5093889;28;20039;-75
2022/05/26 19:18:29;;;;;;;17.48;5.05;;;;;;;;;;5094142;28;20036;-75
2022/05/26 19:21:33;;;;;;;14.90;5.18;;;;;;;;;;5093774;28;20043;-75
2022/05/26 19:24:39;;;;;;;26.92;5.82;;;;;;;;;;5093661;28;20044;-74